createdAt,value
2022-08-08T00:11:13.426Z,35.4
2022-08-08T00:19:28.095Z,35.4
2022-08-08T00:25:39.269Z,35.4
2022-08-08T00:35:07.439Z,35.4
2022-08-08T00:45:21.181Z,35.3
2022-08-08T00:53:15.866Z,35.3
2022-08-08T01:09:35.234Z,35.2
2022-08-08T01:16:34.534Z,35.2
2022-08-08T01:25:59.320Z,35.3
2022-08-08T01:33:43.349Z,35.3
2022-08-08T01:40:36.281Z,35.3
2022-08-08T01:47:05.899Z,35.3
2022-08-08T17:17:23.082Z,44.6
2022-08-08T17:25:11.745Z,44.6
2022-08-08T17:34:38.436Z,44.4
2022-08-08T17:43:07.237Z,44.3
2022-08-08T17:49:44.797Z,44.1
2022-08-08T17:56:59.306Z,44.1
2022-08-08T18:03:49.468Z,43.9
2022-08-08T18:11:37.813Z,43.8
2022-08-08T18:18:45.337Z,43.7
2022-08-08T18:27:33.785Z,43.4
2022-08-08T18:34:28.639Z,43.3
2022-08-08T18:42:16.213Z,43.2
2022-08-08T18:50:14.996Z,43.1
2022-08-08T18:57:48.014Z,43.1
2022-08-08T19:05:30.359Z,42.9
2022-08-08T19:12:43.575Z,42.9
2022-08-08T19:28:53.154Z,42.5
2022-08-08T19:36:45.530Z,42.1
2022-08-08T19:43:30.330Z,41.8
2022-08-08T19:50:50.079Z,41.6
2022-08-08T19:58:08.496Z,41.4
2022-08-08T20:06:32.305Z,41.3
2022-08-08T20:16:17.202Z,41.3
2022-08-08T20:23:20.493Z,41.1
2022-08-08T20:30:01.847Z,41.1
2022-08-08T20:38:48.557Z,41
2022-08-08T20:46:10.875Z,40.9
2022-08-08T21:00:15.599Z,40.8
2022-08-08T21:07:48.063Z,40.8
2022-08-08T21:16:29.955Z,40.8
2022-08-08T21:22:48.601Z,40.7
2022-08-08T21:31:21.821Z,40.6
2022-08-08T21:39:27.342Z,40.6
2022-08-08T21:49:42.301Z,40.6
2022-08-08T22:01:28.089Z,40.4
2022-08-08T22:08:00.285Z,40.4
2022-08-08T22:15:20.522Z,40.4
2022-08-08T22:22:07.562Z,40.3
2022-08-08T22:32:15.636Z,40.3
2022-08-08T22:47:54.430Z,40.2
2022-08-08T22:56:38.153Z,40.1
2022-08-08T23:04:48.595Z,40.1
2022-08-08T23:13:14.652Z,40.1
2022-08-08T23:21:28.599Z,40
2022-08-08T23:28:10.818Z,40
2022-08-08T23:35:17.095Z,39.9
2022-08-08T23:53:30.835Z,39.9
